Weather at Ten Oaks Airport

Public forecast

Using degrees Fahrenheit for public forecast. Weather courtesy of forecast.io.

Closest aviation weather report (METAR) to Ten Oaks Airport

Report is more than 6 hours old.

Closest report is Pleasanton Municipal Airport, 9.2 nm (17.1 km) SSW.

2024/06/16 10:50 (retrieved 17 hours ago)

KPEZ 161050Z AUTO 00000KT 10SM 25/23 A2986 RMK AO2 T02490231

Closest aviation forecast (TAF) to Ten Oaks Airport

Forecast is more than 6 hours old.

Closest forecast is Piedras Negras International Airport, 113.1 nm (209.4 km) WSW.

2024/06/16 18:30 (retrieved 9 hours ago)

TAF MMPG 161727Z 1618/1718 15015KT P6SM SKC BECMG 1620/1621 15015G25KT FM170400 15010KT P6SM SCT030 BECMG 1717/1718 15015KT SKC